Decatur, IL

11:49 PM CDT on July 24, 2014 (GMT -0500)
Taylorville Municipal (KTAZ) Elev 623 ft | 39.54 °N, 89.33 °W | Change Station

Current weather conditions updated 14 minutes ago

Clear
Clear
55 °F
Feels Like 55 °F
N
0
Wind Variable Wind from North

Tomorrow is forecast to be Warmer than today.

Today
High -- | Low -- °F
--% Chance of Precip.
Yesterday
High -- | Low -- °F
Precip. -- in
5:47 AM 8:16 PM
Waning Crescent, 3% visible
Pressure 30.05 in
Visibility 10.0 miles
Clouds Clear
Dew Point 54 °F
Humidity 94%
Rainfall 0.00 in
Snow Depth Not available.
UV 0 out of 12
Pollen 5.80 out of 12
Air Quality Not available.
Flu Activity Not available.
METAR KTAZ 250435Z AUTO 00000KT 10SM CLR 13/12 A3005 RMK AO2

More Conditions Fewer Conditions

Pressure 30.05 in
Visibility 10.0 miles
Clouds Clear
Dew Point 54 °F
Humidity 94%
Rainfall 0.00 in
Snow Depth Not available.
UV 0 out of 12
Pollen 5.80 out of 12
Air Quality Not available.
Flu Activity Not available.
METAR KTAZ 250435Z AUTO 00000KT 10SM CLR 13/12 A3005 RMK AO2

More Conditions Fewer Conditions

10-Day Weather Forecast

Almanac

Astronomy

Jul. 24, 2014 Rise Set
Actual Time 5:47 AM CDT 8:16 PM CDT
Civil Twilight 5:16 AM CDT 8:47 PM CDT
Nautical Twilight 4:37 AM CDT 9:25 PM CDT
Astronomical Twilight 3:55 AM CDT 10:08 PM CDT
Moon 3:55 AM CDT (7/24) 6:31 PM CDT (7/24)
Length of Visible Light 15h 31m
Length of Day
14h 29m
Tomorrow will be 1m 44s shorter.
Waning Crescent, 3% of the Moon is Illuminated
Jul 25
Waning Crescent
Jul 26
New
Aug 3
First Quarter
Aug 10
Full
Aug 17
Last Quarter

Yesterday's Extremes

State Highs State Lows

Community

WunderPhotos

Upload Photos

1,737,244 photos uploaded!

Nearby

Snow Depth

Station Depth Elevation
No new snow has been reported.

Earthquake Activity

City Distance Mag. Time & Date
No recent earthquake activity has been reported nearby.
Minimum magnitude displayed is 2.5.

Coastal Water Temperatures

Place Temperature
No Stations Reporting

Nearby Weather Stations

Station Location Temp. Dew Point Humidity Wind Precip. Elev Updated Type
Sandhill Dr. & Lost Bridge Rd., Decatur, IL 63.3 °F 62 °F 96% North  at  0.0 mph 0.00 in / hr 676 ft 11:49 PM CDT Rapid Fire
Forsyth Pkwy, Forsyth, IL 62.0 °F 59 °F 90% North  at  0.0 mph 0.00 in / hr 669 ft 11:45 PM CDT Normal
APPLEVILLE, Mt Auburn, IL 61.9 °F 35 °F 37% South  at  0.0 mph - / hr 607 ft 11:48 PM CDT Normal
West of lovington, Lovington, IL 59.2 °F 59 °F 99% ENE  at  0.0 mph 0.00 in / hr 666 ft 11:48 PM CDT Rapid Fire
West Okaw River Valley, Sullivan, IL 65.0 °F 60 °F 83% East  at  0.0 mph 0.00 in / hr 656 ft 11:48 PM CDT Rapid Fire
Jones Family, Monticello, IL 61.5 °F 56 °F 83% East  at  1.0 mph 0.00 in / hr 745 ft 11:49 PM CDT Normal
MesoWest KIRKVL , Sullivan, IL 67 °F - - North  at  - 0.00 in / hr 677 ft 10:05 PM CDT MADIS

Show More Stations Show Fewer Stations